TimeCDT,TemperatureF,Dew PointF,Humidity,Sea Level PressureIn,VisibilityMPH,Wind Direction,Wind SpeedMPH,Gust SpeedMPH,PrecipitationIn,Events,Conditions,WindDirDegrees,DateUTC
12:07 AM,62.6,60.8,94,29.87,0.5,Calm,Calm,-,N/A,Fog,Fog,0,2013-09-26 05:07:00
12:17 AM,60.8,60.8,100,29.87,1.0,Calm,Calm,-,N/A,,Mist,0,2013-09-26 05:17:00
12:28 AM,62.6,60.8,94,29.87,0.5,Calm,Calm,-,N/A,Fog,Fog,0,2013-09-26 05:28:00
12:51 AM,60.8,60.8,100,29.87,1.0,Calm,Calm,-,N/A,,Clear,0,2013-09-26 05:51:00
12:54 AM,61.0,60.1,97,29.86,1.0,Calm,Calm,-,N/A,,Clear,0,2013-09-26 05:54:00
1:05 AM,62.6,60.8,94,29.87,0.5,Calm,Calm,-,N/A,Fog,Fog,0,2013-09-26 06:05:00
1:12 AM,60.8,60.8,100,29.87,2.0,Calm,Calm,-,N/A,,Clear,0,2013-09-26 06:12:00
1:25 AM,60.8,60.8,100,29.88,1.5,Calm,Calm,-,N/A,,Clear,0,2013-09-26 06:25:00
1:36 AM,59.0,57.2,94,29.88,0.8,Calm,Calm,-,N/A,,Clear,0,2013-09-26 06:36:00
1:54 AM,60.1,59.0,96,29.87,0.2,Calm,Calm,-,N/A,Fog,Fog,0,2013-09-26 06:54:00
2:54 AM,59.0,59.0,100,29.88,0.5,Calm,Calm,-,N/A,Fog,Fog,0,2013-09-26 07:54:00
2:58 AM,60.8,59.0,94,29.90,0.2,Calm,Calm,-,N/A,Fog,Fog,0,2013-09-26 07:58:00
3:15 AM,59.0,57.2,94,29.90,0.8,Calm,Calm,-,N/A,,Mist,0,2013-09-26 08:15:00
3:26 AM,60.8,59.0,94,29.90,0.2,Calm,Calm,-,N/A,Fog,Fog,0,2013-09-26 08:26:00
3:54 AM,59.0,57.9,96,29.89,0.2,Calm,Calm,-,N/A,Fog,Fog,0,2013-09-26 08:54:00
4:23 AM,59.0,57.2,94,29.91,0.5,Calm,Calm,-,N/A,Fog,Fog,0,2013-09-26 09:23:00
4:40 AM,57.2,57.2,100,29.92,0.2,Calm,Calm,-,N/A,Fog,Fog,0,2013-09-26 09:40:00
4:54 AM,57.9,57.9,100,29.91,0.2,Calm,Calm,-,N/A,Fog,Fog,0,2013-09-26 09:54:00
5:17 AM,57.2,57.2,100,29.92,0.2,Calm,Calm,-,N/A,Fog,Fog,0,2013-09-26 10:17:00
5:42 AM,57.2,57.2,100,29.93,0.2,Calm,Calm,-,N/A,Fog,Fog,0,2013-09-26 10:42:00
5:48 AM,57.2,57.2,100,29.93,2.0,Calm,Calm,-,N/A,,Overcast,0,2013-09-26 10:48:00
5:49 AM,57.9,57.0,97,29.91,2.0,Calm,Calm,-,N/A,,Overcast,0,2013-09-26 10:49:00
5:56 AM,57.2,57.2,100,29.94,1.0,Calm,Calm,-,N/A,,Mist,0,2013-09-26 10:56:00
6:14 AM,57.2,57.2,100,29.94,1.0,Calm,Calm,-,N/A,,Mist,0,2013-09-26 11:14:00
6:28 AM,57.2,57.2,100,29.95,1.0,Calm,Calm,-,N/A,,Mist,0,2013-09-26 11:28:00
6:45 AM,57.2,55.4,94,29.96,0.2,Calm,Calm,-,N/A,Fog,Fog,0,2013-09-26 11:45:00
6:54 AM,57.0,57.0,100,29.95,0.2,Calm,Calm,-,N/A,Fog,Fog,0,2013-09-26 11:54:00
7:10 AM,57.2,57.2,100,29.97,0.2,Calm,Calm,-,N/A,Fog,Fog,0,2013-09-26 12:10:00
7:32 AM,57.2,57.2,100,29.97,0.5,Calm,Calm,-,N/A,Fog,Fog,0,2013-09-26 12:32:00
7:36 AM,59.0,57.2,94,29.98,1.5,Calm,Calm,-,N/A,,Partly Cloudy,0,2013-09-26 12:36:00
7:43 AM,59.0,59.0,100,29.98,4.0,Calm,Calm,-,N/A,,Clear,0,2013-09-26 12:43:00
7:54 AM,60.1,59.0,96,29.97,6.0,Calm,Calm,-,N/A,,Clear,0,2013-09-26 12:54:00
8:54 AM,66.9,63.0,87,29.98,7.0,Calm,Calm,-,N/A,,Clear,0,2013-09-26 13:54:00
9:54 AM,73.9,64.9,73,29.99,8.0,Calm,Calm,-,N/A,,Clear,0,2013-09-26 14:54:00
10:54 AM,78.1,63.0,60,29.98,10.0,SE,6.9,-,N/A,,Partly Cloudy,130,2013-09-26 15:54:00
11:54 AM,81.0,62.1,52,29.98,10.0,SE,6.9,-,N/A,,Partly Cloudy,140,2013-09-26 16:54:00
12:54 PM,82.9,62.1,49,29.97,10.0,East,10.4,-,N/A,,Partly Cloudy,100,2013-09-26 17:54:00
1:54 PM,82.9,60.1,46,29.95,10.0,ESE,6.9,17.3,N/A,,Scattered Clouds,120,2013-09-26 18:54:00
2:54 PM,84.0,57.9,41,29.94,10.0,East,5.8,-,N/A,,Scattered Clouds,80,2013-09-26 19:54:00
3:54 PM,84.0,59.0,43,29.93,10.0,ESE,5.8,-,N/A,,Scattered Clouds,120,2013-09-26 20:54:00
4:54 PM,84.0,59.0,43,29.93,10.0,East,6.9,-,N/A,,Scattered Clouds,100,2013-09-26 21:54:00
5:54 PM,81.0,60.1,49,29.94,10.0,East,4.6,-,N/A,,Partly Cloudy,90,2013-09-26 22:54:00
6:54 PM,77.0,59.0,54,29.94,10.0,ESE,4.6,-,N/A,,Partly Cloudy,110,2013-09-26 23:54:00
7:54 PM,73.9,59.0,59,29.95,10.0,ESE,4.6,-,N/A,,Clear,110,2013-09-27 00:54:00
8:54 PM,69.1,60.1,73,29.97,10.0,Calm,Calm,-,N/A,,Clear,0,2013-09-27 01:54:00
9:54 PM,66.9,59.0,76,29.98,10.0,Calm,Calm,-,N/A,,Clear,0,2013-09-27 02:54:00
10:54 PM,70.0,57.0,63,29.98,10.0,Calm,Calm,-,N/A,,Clear,0,2013-09-27 03:54:00
11:54 PM,69.1,57.0,65,29.99,10.0,SE,3.5,-,N/A,,Clear,140,2013-09-27 04:54:00